createdAt,value
2023-04-22T00:00:53.859Z,7.5
2023-04-22T00:02:02.423Z,6.3
2023-04-22T00:03:10.856Z,6.3
2023-04-22T00:04:19.284Z,6.3
2023-04-22T00:05:27.796Z,7.9
2023-04-22T00:06:36.030Z,7.9
2023-04-22T00:07:44.368Z,7.9
2023-04-22T00:08:52.956Z,7.3
2023-04-22T00:10:01.314Z,7.3
2023-04-22T00:11:09.611Z,7.3
2023-04-22T00:12:18.162Z,6.9
2023-04-22T00:13:26.489Z,6.9
2023-04-22T00:14:34.829Z,6.9
2023-04-22T00:15:43.454Z,6
2023-04-22T00:16:51.712Z,6
2023-04-22T00:18:00.071Z,6
2023-04-22T00:19:08.609Z,7.8
2023-04-22T00:20:16.954Z,7.8
2023-04-22T00:21:25.290Z,7.8
2023-04-22T00:22:33.836Z,6.5
2023-04-22T00:23:42.179Z,6.5
2023-04-22T00:24:50.526Z,6.5
2023-04-22T00:25:59.153Z,6.5
2023-04-22T00:27:07.384Z,6.5
2023-04-22T00:28:15.750Z,6.5
2023-04-22T00:29:24.305Z,6.8
2023-04-22T00:30:32.640Z,6.8
2023-04-22T00:31:40.988Z,6.8
2023-04-22T00:32:49.555Z,8.3
2023-04-22T00:33:57.897Z,8.3
2023-04-22T00:35:06.277Z,8.3
2023-04-22T00:36:14.795Z,7.5
2023-04-22T00:37:23.125Z,7.5
2023-04-22T00:38:31.466Z,7.5
2023-04-22T00:39:40.185Z,5.6
2023-04-22T00:40:48.342Z,5.6
2023-04-22T00:41:56.725Z,5.6
2023-04-22T00:43:05.258Z,7.6
2023-04-22T00:44:13.597Z,7.6
2023-04-22T00:45:21.937Z,7.6
2023-04-22T00:46:30.526Z,6.8
2023-04-22T00:47:38.835Z,6.8
2023-04-22T00:48:47.206Z,6.8
2023-04-22T00:49:55.742Z,7.6
2023-04-22T00:51:04.076Z,7.6
2023-04-22T00:52:12.431Z,7.6
2023-04-22T00:53:20.971Z,7
2023-04-22T00:54:29.332Z,7
2023-04-22T00:55:37.668Z,7
2023-04-22T00:56:46.233Z,7.3
2023-04-22T00:57:54.579Z,7.3
2023-04-22T00:59:02.895Z,7.3
2023-04-22T01:00:11.454Z,7.1
2023-04-22T01:01:19.808Z,7.1
2023-04-22T01:02:28.230Z,7.1
2023-04-22T01:03:36.873Z,6.1
2023-04-22T01:04:45.021Z,6.1
2023-04-22T01:05:53.356Z,6.1
2023-04-22T01:07:01.902Z,5.6
2023-04-22T01:08:10.276Z,5.6
2023-04-22T01:09:18.633Z,5.6
2023-04-22T01:10:27.193Z,8.3
2023-04-22T01:11:35.522Z,8.3
2023-04-22T01:12:43.849Z,8.3
2023-04-22T01:13:52.424Z,6.8
2023-04-22T01:15:03.054Z,6.8
2023-04-22T01:16:09.188Z,6.8
2023-04-22T01:17:17.637Z,7.6
2023-04-22T01:18:25.976Z,7.6
2023-04-22T01:19:34.322Z,7.6
2023-04-22T01:20:42.887Z,8.9
2023-04-22T01:21:51.218Z,8.9
2023-04-22T01:22:59.541Z,8.9
2023-04-22T01:24:08.112Z,7.1
2023-04-22T01:25:16.451Z,7.1
2023-04-22T01:26:24.808Z,7.1
2023-04-22T01:27:33.345Z,8.8
2023-04-22T01:28:41.680Z,8.8
2023-04-22T01:29:50.047Z,8.8
2023-04-22T01:30:58.558Z,6.7
2023-04-22T01:32:07.002Z,6.7
2023-04-22T01:33:15.265Z,6.7
2023-04-22T01:34:23.797Z,7.7
2023-04-22T01:35:32.116Z,7.7
2023-04-22T01:36:40.464Z,7.7
2023-04-22T01:37:49.027Z,10.8
2023-04-22T01:38:57.377Z,10.8
2023-04-22T01:40:05.732Z,10.8
2023-04-22T01:41:14.247Z,7.3
2023-04-22T01:42:22.629Z,7.3
2023-04-22T01:43:30.963Z,7.3
2023-04-22T01:44:39.505Z,7.4
2023-04-22T01:45:47.899Z,7.4
2023-04-22T01:46:56.169Z,7.4
2023-04-22T01:48:04.804Z,7.7
2023-04-22T01:49:13.068Z,7.7
2023-04-22T01:50:21.407Z,7.7
2023-04-22T01:51:29.930Z,7.8
2023-04-22T01:52:38.282Z,7.8
2023-04-22T01:53:46.598Z,7.8
2023-04-22T01:54:55.141Z,7.7
2023-04-22T01:56:03.471Z,7.7
2023-04-22T01:57:11.803Z,7.7
2023-04-22T01:58:20.360Z,7.8
2023-04-22T01:59:28.687Z,7.8
2023-04-22T02:00:37.016Z,7.8
2023-04-22T02:01:45.584Z,6.8
2023-04-22T02:02:53.947Z,6.8
2023-04-22T02:04:02.262Z,6.8
2023-04-22T02:05:10.880Z,7.5
2023-04-22T02:06:19.204Z,7.5
2023-04-22T02:07:27.502Z,7.5
2023-04-22T02:08:36.060Z,7.1
2023-04-22T02:09:44.403Z,7.1
2023-04-22T02:10:52.760Z,7.1
2023-04-22T02:12:01.318Z,7.3
2023-04-22T02:13:09.680Z,7.3
2023-04-22T02:14:17.998Z,7.3
2023-04-22T02:15:26.530Z,8.5
2023-04-22T02:16:34.887Z,8.5
2023-04-22T02:17:43.234Z,8.5
2023-04-22T02:18:51.753Z,6.7
2023-04-22T02:20:00.127Z,6.7
2023-04-22T02:21:08.416Z,6.7
2023-04-22T02:22:16.980Z,6.9
2023-04-22T02:23:25.329Z,6.9
2023-04-22T02:24:33.680Z,6.9
2023-04-22T02:25:42.234Z,7.5
2023-04-22T02:26:50.564Z,7.5
2023-04-22T02:27:58.931Z,7.5
2023-04-22T02:29:07.472Z,7.4
2023-04-22T02:30:15.801Z,7.4
2023-04-22T02:31:24.227Z,7.4
2023-04-22T02:32:32.819Z,8.7
2023-04-22T02:33:41.052Z,8.7
2023-04-22T02:34:49.362Z,8.7
2023-04-22T02:35:57.915Z,7.9
2023-04-22T02:37:06.229Z,7.9
2023-04-22T02:38:14.570Z,7.9
2023-04-22T02:39:23.114Z,7.3
2023-04-22T02:40:31.443Z,7.3
2023-04-22T02:41:39.777Z,7.3
2023-04-22T02:42:48.328Z,6.9
2023-04-22T02:43:56.646Z,6.9
2023-04-22T02:45:04.984Z,6.9
2023-04-22T02:46:13.591Z,8.9
2023-04-22T02:47:21.893Z,8.9
2023-04-22T02:48:30.207Z,8.9
2023-04-22T02:49:39.049Z,8.8
2023-04-22T02:50:47.070Z,8.8
2023-04-22T02:51:55.395Z,8.8
2023-04-22T02:53:03.948Z,9.1
2023-04-22T02:54:12.280Z,9.1
2023-04-22T02:55:20.608Z,9.1
2023-04-22T02:56:29.147Z,11.9
2023-04-22T02:57:37.488Z,11.9
2023-04-22T02:58:45.826Z,11.9
2023-04-22T02:59:54.380Z,7.8
2023-04-22T03:01:02.785Z,7.8
2023-04-22T03:02:11.084Z,7.8
2023-04-22T03:03:19.668Z,9.3
2023-04-22T03:04:28.087Z,9.3
2023-04-22T03:05:36.288Z,9.3
2023-04-22T03:06:44.809Z,8.7
2023-04-22T03:07:53.179Z,8.7
2023-04-22T03:09:01.519Z,8.7
2023-04-22T03:10:10.064Z,8.2
2023-04-22T03:11:18.406Z,8.2
2023-04-22T03:12:26.753Z,8.2
2023-04-22T03:13:35.291Z,10
2023-04-22T03:14:43.631Z,10
2023-04-22T03:15:51.974Z,10
2023-04-22T03:17:00.537Z,7.9
2023-04-22T03:18:08.939Z,7.9
2023-04-22T03:19:17.201Z,7.9
2023-04-22T03:20:25.751Z,10
2023-04-22T03:21:34.146Z,10
2023-04-22T03:22:42.435Z,10
2023-04-22T03:23:50.966Z,7
2023-04-22T03:24:59.292Z,7
2023-04-22T03:26:07.706Z,7
2023-04-22T03:27:16.165Z,8.1
2023-04-22T03:28:24.546Z,8.1
2023-04-22T03:29:32.864Z,8.1
2023-04-22T03:30:41.394Z,8
2023-04-22T03:31:49.766Z,8
2023-04-22T03:32:58.122Z,8
2023-04-22T03:34:06.652Z,9.2
2023-04-22T03:35:15.013Z,9.2
2023-04-22T03:36:23.333Z,9.2
2023-04-22T03:37:31.919Z,9.9
2023-04-22T03:38:40.228Z,9.9
2023-04-22T03:39:48.584Z,9.9
2023-04-22T03:40:57.128Z,9
2023-04-22T03:42:05.469Z,9
2023-04-22T03:43:13.803Z,9
2023-04-22T03:44:22.347Z,9.8
2023-04-22T03:45:30.679Z,9.8
2023-04-22T03:46:39.014Z,9.8
2023-04-22T03:47:47.587Z,7.6
2023-04-22T03:48:55.889Z,7.6
2023-04-22T03:50:04.251Z,7.6
2023-04-22T03:51:12.810Z,8.3
2023-04-22T03:52:21.142Z,8.3
2023-04-22T03:53:29.486Z,8.3
2023-04-22T03:54:38.024Z,8.5
2023-04-22T03:55:46.349Z,8.5
2023-04-22T03:56:54.702Z,8.5
2023-04-22T03:58:03.246Z,8
2023-04-22T03:59:11.612Z,8
2023-04-22T04:00:19.933Z,8
2023-04-22T04:01:28.470Z,10.1
2023-04-22T04:02:37.032Z,10.1
2023-04-22T04:03:45.299Z,10.1
2023-04-22T04:04:54.131Z,9.7
2023-04-22T04:06:02.160Z,9.7
2023-04-22T04:07:10.342Z,9.7
2023-04-22T04:08:18.899Z,11
2023-04-22T04:09:27.261Z,11
2023-04-22T04:10:35.584Z,11
2023-04-22T04:11:44.184Z,8.3
2023-04-22T04:12:52.503Z,8.3
2023-04-22T04:14:00.848Z,8.3
2023-04-22T04:15:09.373Z,10
2023-04-22T04:16:17.775Z,10
2023-04-22T04:17:26.187Z,10
2023-04-22T04:18:34.612Z,7
2023-04-22T04:19:43.087Z,7
2023-04-22T04:20:51.254Z,7
2023-04-22T04:22:00.752Z,8.2
2023-04-22T04:23:08.167Z,8.2
2023-04-22T04:24:16.525Z,8.2
2023-04-22T04:25:25.066Z,9.2
2023-04-22T04:26:33.374Z,9.2
2023-04-22T04:27:41.735Z,9.2
2023-04-22T04:28:50.246Z,9.5
2023-04-22T04:29:58.585Z,9.5
2023-04-22T04:31:07.023Z,9.5
2023-04-22T04:32:15.492Z,10.4
2023-04-22T04:33:23.837Z,10.4
2023-04-22T04:34:32.166Z,10.4
2023-04-22T04:35:40.714Z,7.3
2023-04-22T04:36:49.040Z,7.3
2023-04-22T04:37:57.377Z,7.3
2023-04-22T04:39:06.159Z,7.8
2023-04-22T04:40:14.489Z,7.8
2023-04-22T04:41:22.885Z,7.8
2023-04-22T04:42:31.416Z,7.5
2023-04-22T04:43:39.757Z,7.5
2023-04-22T04:44:48.100Z,7.5
2023-04-22T04:45:56.644Z,8.9
2023-04-22T04:47:05.023Z,8.9
2023-04-22T04:48:13.336Z,8.9
2023-04-22T04:49:21.880Z,11.2
2023-04-22T04:50:30.225Z,11.2
2023-04-22T04:51:38.563Z,11.2
2023-04-22T04:52:47.113Z,9.8
2023-04-22T04:53:55.440Z,9.8
2023-04-22T04:55:03.820Z,9.8
2023-04-22T04:56:12.401Z,10.7
2023-04-22T04:57:20.762Z,10.7
2023-04-22T04:58:29.053Z,10.7
2023-04-22T04:59:37.868Z,11.6
2023-04-22T05:00:45.928Z,11.6
2023-04-22T05:01:54.292Z,11.6
2023-04-22T05:03:02.942Z,11.3
2023-04-22T05:04:11.294Z,11.3
2023-04-22T05:05:19.476Z,11.3
2023-04-22T05:06:28.029Z,9
2023-04-22T05:07:36.363Z,9
2023-04-22T05:08:44.710Z,9
2023-04-22T05:09:53.247Z,11.9
2023-04-22T05:11:01.599Z,11.9
2023-04-22T05:12:09.932Z,11.9
2023-04-22T05:13:18.585Z,10.5
2023-04-22T05:14:26.854Z,10.5
2023-04-22T05:15:35.172Z,10.5
2023-04-22T05:16:43.767Z,7.8
2023-04-22T05:17:52.120Z,7.8
2023-04-22T05:19:00.390Z,7.8
2023-04-22T05:20:08.959Z,9
2023-04-22T05:21:17.291Z,9
2023-04-22T05:22:25.632Z,9
2023-04-22T05:23:34.161Z,9.6
2023-04-22T05:24:42.488Z,9.6
2023-04-22T05:25:52.829Z,9.6
2023-04-22T05:26:59.352Z,8.1
2023-04-22T05:28:07.696Z,8.1
2023-04-22T05:29:16.046Z,8.1
2023-04-22T05:30:24.560Z,8.2
2023-04-22T05:31:32.917Z,8.2
2023-04-22T05:32:41.331Z,8.2
2023-04-22T05:33:49.821Z,10.2
2023-04-22T05:34:58.141Z,10.2
2023-04-22T05:36:06.506Z,10.2
2023-04-22T05:37:15.045Z,10.3
2023-04-22T05:38:23.387Z,10.3
2023-04-22T05:39:31.710Z,10.3
2023-04-22T05:40:40.253Z,7.6
2023-04-22T05:41:48.600Z,7.6
2023-04-22T05:42:56.949Z,7.6
2023-04-22T05:44:05.481Z,7.9
2023-04-22T05:45:13.839Z,7.9
2023-04-22T05:46:22.181Z,7.9
2023-04-22T05:47:30.763Z,11.5
2023-04-22T05:48:39.053Z,11.5
2023-04-22T05:49:47.378Z,11.5
2023-04-22T05:50:55.929Z,8.6
2023-04-22T05:52:04.258Z,8.6
2023-04-22T05:53:12.596Z,8.6
2023-04-22T05:54:21.132Z,10.3
2023-04-22T05:55:29.465Z,10.3
2023-04-22T05:56:37.802Z,10.3
2023-04-22T05:57:46.748Z,11
2023-04-22T05:58:55.087Z,11
2023-04-22T06:00:03.437Z,11
2023-04-22T06:01:11.990Z,10.1
2023-04-22T06:02:20.639Z,10.1
2023-04-22T06:03:29.064Z,10.1
2023-04-22T06:04:38.123Z,10.8
2023-04-22T06:05:45.852Z,10.8
2023-04-22T06:06:54.134Z,10.8
2023-04-22T06:08:02.671Z,9.2
2023-04-22T06:09:11.002Z,9.2
2023-04-22T06:10:19.319Z,9.2
2023-04-22T06:11:27.878Z,9.5
2023-04-22T06:12:36.250Z,9.5
2023-04-22T06:13:44.573Z,9.5
2023-04-22T06:14:53.106Z,8.4
2023-04-22T06:16:01.470Z,8.4
2023-04-22T06:17:09.821Z,8.4
2023-04-22T06:18:18.344Z,9.3
2023-04-22T06:19:26.675Z,9.3
2023-04-22T06:20:35.001Z,9.3
2023-04-22T06:21:43.553Z,11.3
2023-04-22T06:22:51.909Z,11.3
2023-04-22T06:24:00.231Z,11.3
2023-04-22T06:25:08.816Z,8.8
2023-04-22T06:26:17.112Z,8.8
2023-04-22T06:27:25.469Z,8.8
2023-04-22T06:28:34.033Z,8.7
2023-04-22T06:29:42.376Z,8.7
2023-04-22T06:30:50.721Z,8.7
2023-04-22T06:31:59.262Z,10
2023-04-22T06:33:07.699Z,10
2023-04-22T06:34:15.920Z,10
2023-04-22T06:35:24.461Z,8.6
2023-04-22T06:36:32.785Z,8.6
2023-04-22T06:37:41.113Z,8.6
2023-04-22T06:38:49.648Z,9.3
2023-04-22T06:39:57.978Z,9.3
2023-04-22T06:41:06.302Z,9.3
2023-04-22T06:42:14.900Z,7.7
2023-04-22T06:43:23.187Z,7.7
2023-04-22T06:44:31.520Z,7.7
2023-04-22T06:45:40.063Z,11.4
2023-04-22T06:46:48.472Z,11.4
2023-04-22T06:47:56.751Z,11.4
2023-04-22T06:49:05.310Z,8.6
2023-04-22T06:50:13.615Z,8.6
2023-04-22T06:51:21.957Z,8.6
2023-04-22T06:52:30.676Z,13.4
2023-04-22T06:53:39.010Z,13.4
2023-04-22T06:54:47.356Z,13.4
2023-04-22T06:55:55.909Z,10.5
2023-04-22T06:57:04.844Z,10.5
2023-04-22T06:58:13.176Z,10.5
2023-04-22T06:59:21.794Z,8.3
2023-04-22T07:00:30.088Z,8.3
2023-04-22T07:01:38.461Z,8.3
2023-04-22T07:02:47.007Z,8.4
2023-04-22T07:03:55.329Z,8.4
2023-04-22T07:05:03.654Z,8.4
2023-04-22T07:06:12.199Z,7.3
2023-04-22T07:07:20.517Z,7.3
2023-04-22T07:08:28.835Z,7.3
2023-04-22T07:09:37.702Z,9.2
2023-04-22T07:10:45.722Z,9.2
2023-04-22T07:11:54.067Z,9.2
2023-04-22T07:13:02.605Z,10.1
2023-04-22T07:14:10.932Z,10.1
2023-04-22T07:15:19.273Z,10.1
2023-04-22T07:16:27.865Z,9.5
2023-04-22T07:17:36.187Z,9.5
2023-04-22T07:18:44.489Z,9.5
2023-04-22T07:19:53.031Z,12.3
2023-04-22T07:21:01.385Z,12.3
2023-04-22T07:22:09.691Z,12.3
2023-04-22T07:23:18.241Z,7.5
2023-04-22T07:24:26.575Z,7.5
2023-04-22T07:25:34.929Z,7.5
2023-04-22T07:26:43.477Z,9.4
2023-04-22T07:27:51.820Z,9.4
2023-04-22T07:29:00.150Z,9.4
2023-04-22T07:30:08.694Z,10.7
2023-04-22T07:31:17.082Z,10.7
2023-04-22T07:32:25.370Z,10.7
2023-04-22T07:33:33.895Z,7.8
2023-04-22T07:34:42.231Z,7.8
2023-04-22T07:35:50.569Z,7.8
2023-04-22T07:36:59.151Z,10.6
2023-04-22T07:38:08.813Z,10.6
2023-04-22T07:39:15.767Z,10.6
2023-04-22T07:40:24.325Z,9.7
2023-04-22T07:41:32.659Z,9.7
2023-04-22T07:42:40.992Z,9.7
2023-04-22T07:43:49.541Z,9.6
2023-04-22T07:44:57.879Z,9.6
2023-04-22T07:46:06.239Z,9.6
2023-04-22T07:47:14.736Z,8.5
2023-04-22T07:48:23.156Z,8.5
2023-04-22T07:49:31.490Z,8.5
2023-04-22T07:50:40.027Z,11.2
2023-04-22T07:51:48.374Z,11.2
2023-04-22T07:52:56.744Z,11.2
2023-04-22T07:54:05.226Z,12.1
2023-04-22T07:55:13.569Z,12.1
2023-04-22T07:56:21.904Z,12.1
2023-04-22T07:57:30.434Z,10.2
2023-04-22T07:58:38.764Z,10.2
2023-04-22T07:59:47.112Z,10.2
2023-04-22T08:00:55.676Z,9
2023-04-22T08:02:04.062Z,9
2023-04-22T08:03:12.384Z,9
2023-04-22T08:04:21.028Z,12.2
2023-04-22T08:05:29.203Z,12.2
2023-04-22T08:06:37.543Z,12.2
2023-04-22T08:07:46.077Z,10.5
2023-04-22T08:08:54.426Z,10.5
2023-04-22T08:10:02.737Z,10.5
2023-04-22T08:11:11.282Z,7.5
2023-04-22T08:12:19.611Z,7.5
2023-04-22T08:13:27.951Z,7.5
2023-04-22T08:14:36.512Z,6.2
2023-04-22T08:15:44.887Z,6.2
2023-04-22T08:16:53.184Z,6.2
2023-04-22T08:18:01.727Z,8.1
2023-04-22T08:19:10.056Z,8.1
2023-04-22T08:20:18.387Z,8.1
2023-04-22T08:21:26.920Z,7.5
2023-04-22T08:22:35.282Z,7.5
2023-04-22T08:23:43.636Z,7.5
2023-04-22T08:24:52.200Z,9.9
2023-04-22T08:26:00.502Z,9.9
2023-04-22T08:27:08.867Z,9.9
2023-04-22T08:28:17.396Z,6.4
2023-04-22T08:29:25.736Z,6.4
2023-04-22T08:30:34.075Z,6.4
2023-04-22T08:31:42.687Z,8.2
2023-04-22T08:32:50.945Z,8.2
2023-04-22T08:33:59.286Z,8.2
2023-04-22T08:35:07.850Z,13.5
2023-04-22T08:36:16.169Z,13.5
2023-04-22T08:37:24.496Z,13.5
2023-04-22T08:38:33.048Z,7.2
2023-04-22T08:39:41.558Z,7.2
2023-04-22T08:40:49.740Z,7.2
2023-04-22T08:41:58.262Z,7.3
2023-04-22T08:43:06.596Z,7.3
2023-04-22T08:44:14.931Z,7.3
2023-04-22T08:45:23.470Z,10.6
2023-04-22T08:46:31.826Z,10.6
2023-04-22T08:47:40.186Z,10.6
2023-04-22T08:48:48.710Z,9.9
2023-04-22T08:49:57.036Z,9.9
2023-04-22T08:51:05.374Z,9.9
2023-04-22T08:52:13.930Z,8.9
2023-04-22T08:53:24.326Z,8.9
2023-04-22T08:54:30.631Z,8.9
2023-04-22T08:55:39.184Z,8.8
2023-04-22T08:56:47.530Z,8.8
2023-04-22T08:57:55.845Z,8.8
2023-04-22T08:59:05.823Z,7.1
2023-04-22T09:00:14.169Z,7.1
2023-04-22T09:01:22.520Z,7.1
2023-04-22T09:02:31.050Z,6.9
2023-04-22T09:03:39.449Z,6.9
2023-04-22T09:04:47.703Z,6.9
2023-04-22T09:05:56.246Z,7.8
2023-04-22T09:07:04.594Z,7.8
2023-04-22T09:08:12.922Z,7.8
2023-04-22T09:09:21.473Z,6.6
2023-04-22T09:10:30.391Z,6.6
2023-04-22T09:11:38.161Z,6.6
2023-04-22T09:12:46.731Z,9.8
2023-04-22T09:13:55.043Z,9.8
2023-04-22T09:15:03.388Z,9.8
2023-04-22T09:16:11.918Z,5.2
2023-04-22T09:17:20.287Z,5.2
2023-04-22T09:18:28.613Z,5.2
2023-04-22T09:19:37.253Z,8.1
2023-04-22T09:20:45.488Z,8.1
2023-04-22T09:21:54.498Z,8.1
2023-04-22T09:23:02.359Z,8.1
2023-04-22T09:24:10.725Z,8.1
2023-04-22T09:25:19.080Z,8.1
2023-04-22T09:26:27.610Z,5.6
2023-04-22T09:27:35.942Z,5.6
2023-04-22T09:28:44.319Z,5.6
2023-04-22T09:29:52.840Z,7.4
2023-04-22T09:31:01.201Z,7.4
2023-04-22T09:32:09.608Z,7.4
2023-04-22T09:33:18.154Z,6.9
2023-04-22T09:34:26.472Z,6.9
2023-04-22T09:35:34.815Z,6.9
2023-04-22T09:36:43.385Z,6
2023-04-22T09:37:51.719Z,6
2023-04-22T09:39:00.076Z,6
2023-04-22T09:40:08.614Z,7.8
2023-04-22T09:41:16.950Z,7.8
2023-04-22T09:42:25.311Z,7.8
2023-04-22T09:43:33.945Z,7
2023-04-22T09:44:42.344Z,7
2023-04-22T09:45:50.742Z,7
2023-04-22T09:46:59.295Z,4.4
2023-04-22T09:48:07.718Z,4.4
2023-04-22T09:49:16.083Z,4.4
2023-04-22T09:50:24.707Z,4.4
2023-04-22T09:51:33.076Z,4.4
2023-04-22T09:52:41.455Z,4.4
2023-04-22T09:53:50.082Z,7
2023-04-22T09:54:58.540Z,7
2023-04-22T09:56:06.933Z,7
2023-04-22T09:57:15.495Z,5.9
2023-04-22T09:58:24.087Z,5.9
2023-04-22T09:59:32.339Z,5.9
2023-04-22T10:00:40.979Z,5.2
2023-04-22T10:01:49.325Z,5.2
2023-04-22T10:02:57.755Z,5.2
2023-04-22T10:04:06.340Z,7.9
2023-04-22T10:05:14.690Z,7.9
2023-04-22T10:06:23.074Z,7.9
2023-04-22T10:07:31.923Z,7.6
2023-04-22T10:08:40.082Z,7.6
2023-04-22T10:09:48.450Z,7.6
2023-04-22T10:10:57.052Z,5.9
2023-04-22T10:12:05.424Z,5.9
2023-04-22T10:13:13.821Z,5.9
2023-04-22T10:14:22.432Z,5.5
2023-04-22T10:15:30.821Z,5.5
2023-04-22T10:16:39.303Z,5.5
2023-04-22T10:17:47.808Z,6.6
2023-04-22T10:18:56.358Z,6.6
2023-04-22T10:20:04.596Z,6.6
2023-04-22T10:21:13.202Z,6.8
2023-04-22T10:22:21.584Z,6.8
2023-04-22T10:23:30.086Z,6.8
2023-04-22T10:24:38.587Z,4.7
2023-04-22T10:25:46.937Z,4.7
2023-04-22T10:26:56.866Z,4.7
2023-04-22T10:28:03.924Z,5.7
2023-04-22T10:29:12.296Z,5.7
2023-04-22T10:30:20.657Z,5.7
2023-04-22T10:31:29.305Z,3.4
2023-04-22T10:32:37.673Z,3.4
2023-04-22T10:33:46.025Z,3.4
2023-04-22T10:34:54.627Z,3.1
2023-04-22T10:36:03.024Z,3.1
2023-04-22T10:37:11.675Z,3.1
2023-04-22T10:38:19.998Z,2.9
2023-04-22T10:39:28.387Z,2.9
2023-04-22T10:40:36.765Z,2.9
2023-04-22T10:41:45.376Z,3.2
2023-04-22T10:42:53.772Z,3.2
2023-04-22T10:44:02.180Z,3.2
2023-04-22T10:45:10.782Z,2.1
2023-04-22T10:46:19.171Z,2.1
2023-04-22T10:47:27.609Z,2.1
2023-04-22T10:48:36.225Z,4.8
2023-04-22T10:49:44.587Z,4.8
2023-04-22T10:50:52.978Z,4.8
2023-04-22T10:52:01.582Z,4
2023-04-22T10:53:09.978Z,4
2023-04-22T10:54:18.341Z,4
2023-04-22T10:55:26.940Z,5.1
2023-04-22T10:56:36.327Z,5.1
2023-04-22T10:57:43.790Z,5.1
2023-04-22T10:58:52.354Z,6.6
2023-04-22T11:00:00.742Z,6.6
2023-04-22T11:01:09.191Z,6.6
2023-04-22T11:02:17.809Z,4.7
2023-04-22T11:03:26.265Z,4.7
2023-04-22T11:04:34.644Z,4.7
2023-04-22T11:05:43.138Z,4.8
2023-04-22T11:06:51.525Z,4.8
2023-04-22T11:07:59.949Z,4.8
2023-04-22T11:09:08.533Z,4.6
2023-04-22T11:10:16.937Z,4.6
2023-04-22T11:11:25.329Z,4.6
2023-04-22T11:12:33.938Z,4
2023-04-22T11:13:42.284Z,4
2023-04-22T11:14:50.659Z,4
2023-04-22T11:15:59.294Z,3.3
2023-04-22T11:17:07.596Z,3.3
2023-04-22T11:18:16.537Z,3.3
2023-04-22T11:19:25.088Z,3.8
2023-04-22T11:20:33.482Z,3.8
2023-04-22T11:21:41.873Z,3.8
2023-04-22T11:22:50.480Z,6.3
2023-04-22T11:23:58.858Z,6.3
2023-04-22T11:25:07.249Z,6.3
2023-04-22T11:26:15.880Z,3.9
2023-04-22T11:27:24.273Z,3.9
2023-04-22T11:28:32.658Z,3.9
2023-04-22T11:29:41.303Z,3.9
2023-04-22T11:30:49.610Z,3.9
2023-04-22T11:31:58.025Z,3.9
2023-04-22T11:33:06.601Z,5.8
2023-04-22T11:34:14.950Z,5.8
2023-04-22T11:35:23.303Z,5.8
2023-04-22T11:36:31.895Z,6.8
2023-04-22T11:37:40.246Z,6.8
2023-04-22T11:38:48.607Z,6.8
2023-04-22T11:40:17.195Z,3.7
2023-04-22T11:41:05.584Z,3.7
2023-04-22T11:42:13.939Z,3.7
2023-04-22T11:43:22.525Z,3.3
2023-04-22T11:44:30.905Z,3.3
2023-04-22T11:45:39.334Z,3.3
2023-04-22T11:46:47.897Z,3.8
2023-04-22T11:47:56.330Z,3.8
2023-04-22T11:49:04.678Z,3.8
2023-04-22T11:50:13.298Z,4.4
2023-04-22T11:51:21.621Z,4.4
2023-04-22T11:52:29.992Z,4.4
2023-04-22T11:53:38.573Z,5
2023-04-22T11:54:46.922Z,5
2023-04-22T11:55:55.307Z,5
2023-04-22T11:57:03.928Z,7.8
2023-04-22T11:58:12.265Z,7.8
2023-04-22T11:59:20.625Z,7.8
2023-04-22T12:00:29.241Z,11.7
2023-04-22T12:01:37.681Z,11.7
2023-04-22T12:02:46.274Z,11.7
2023-04-22T12:03:54.811Z,4.1
2023-04-22T12:05:03.131Z,4.1
2023-04-22T12:06:11.477Z,4.1
2023-04-22T12:07:20.081Z,4.8
2023-04-22T12:08:28.556Z,4.8
2023-04-22T12:09:37.180Z,4.8
2023-04-22T12:10:45.606Z,4.3
2023-04-22T12:11:54.011Z,4.3
2023-04-22T12:13:02.469Z,4.3
2023-04-22T12:14:11.095Z,3.6
2023-04-22T12:15:19.494Z,3.6
2023-04-22T12:16:27.964Z,3.6
2023-04-22T12:17:36.544Z,5.8
2023-04-22T12:18:44.901Z,5.8
2023-04-22T12:19:53.278Z,5.8
2023-04-22T12:21:01.898Z,4.2
2023-04-22T12:22:10.223Z,4.2
2023-04-22T12:23:18.573Z,4.2
2023-04-22T12:24:27.145Z,4
2023-04-22T12:25:35.516Z,4
2023-04-22T12:26:43.897Z,4
2023-04-22T12:27:52.439Z,3.7
2023-04-22T12:29:00.810Z,3.7
2023-04-22T12:30:09.169Z,3.7
2023-04-22T12:31:17.764Z,4.3
2023-04-22T12:32:26.084Z,4.3
2023-04-22T12:33:34.518Z,4.3
2023-04-22T12:34:43.049Z,2.9
2023-04-22T12:35:51.462Z,2.9
2023-04-22T12:36:59.808Z,2.9
2023-04-22T12:38:08.389Z,3.4
2023-04-22T12:39:16.788Z,3.4
2023-04-22T12:40:25.208Z,3.4
2023-04-22T12:41:33.773Z,4.2
2023-04-22T12:42:42.175Z,4.2
2023-04-22T12:43:50.579Z,4.2
2023-04-22T12:44:59.196Z,4.4
2023-04-22T12:46:07.559Z,4.4
2023-04-22T12:47:15.928Z,4.4
2023-04-22T12:48:24.538Z,5.5
2023-04-22T12:49:32.895Z,5.5
2023-04-22T12:50:41.286Z,5.5
2023-04-22T12:51:49.887Z,6.7
2023-04-22T12:52:58.277Z,6.7
2023-04-22T12:54:06.677Z,6.7
2023-04-22T12:55:15.334Z,4.9
2023-04-22T12:56:23.719Z,4.9
2023-04-22T12:57:32.083Z,4.9
2023-04-22T12:58:40.702Z,5.6
2023-04-22T12:59:49.077Z,5.6
2023-04-22T13:00:57.451Z,5.6
2023-04-22T13:02:06.169Z,5.7
2023-04-22T13:03:14.666Z,5.7
2023-04-22T13:04:22.888Z,5.7
2023-04-22T13:05:31.474Z,5.7
2023-04-22T13:06:40.348Z,5.7
2023-04-22T13:07:56.358Z,5.7
2023-04-22T13:08:56.830Z,4.9
2023-04-22T13:10:05.217Z,4.9
2023-04-22T13:11:13.589Z,4.9
2023-04-22T13:12:22.191Z,3.6
2023-04-22T13:13:30.553Z,3.6
2023-04-22T13:14:38.990Z,3.6
2023-04-22T13:15:48.011Z,3.5
2023-04-22T13:16:56.018Z,3.5
2023-04-22T13:18:04.418Z,3.5
2023-04-22T13:19:13.068Z,3.8
2023-04-22T13:20:21.474Z,3.8
2023-04-22T13:21:29.885Z,3.8
2023-04-22T13:22:38.545Z,3.5
2023-04-22T13:23:46.979Z,3.5
2023-04-22T13:24:55.390Z,3.5
2023-04-22T13:26:04.042Z,7.4
2023-04-22T13:27:12.460Z,7.4
2023-04-22T13:28:20.905Z,7.4
2023-04-22T13:29:29.495Z,4.2
2023-04-22T13:30:37.916Z,4.2
2023-04-22T13:31:46.353Z,4.2
2023-04-22T13:32:54.955Z,6.7
2023-04-22T13:34:03.320Z,6.7
2023-04-22T13:35:11.684Z,6.7
2023-04-22T13:36:20.317Z,4.6
2023-04-22T13:37:28.697Z,4.6
2023-04-22T13:38:37.074Z,4.6
2023-04-22T13:39:45.646Z,5.9
2023-04-22T13:40:54.040Z,5.9
2023-04-22T13:42:02.404Z,5.9
2023-04-22T13:43:11.024Z,5.9
2023-04-22T13:44:19.428Z,5.9
2023-04-22T13:45:27.813Z,5.9
2023-04-22T13:46:36.386Z,3.1
2023-04-22T13:47:44.823Z,3.1
2023-04-22T13:48:53.150Z,3.1
2023-04-22T13:50:02.059Z,4
2023-04-22T13:51:10.161Z,4
2023-04-22T13:52:18.531Z,4
2023-04-22T13:53:27.128Z,4.1
2023-04-22T13:54:35.506Z,4.1
2023-04-22T13:55:43.925Z,4.1
2023-04-22T13:56:52.515Z,4.4
2023-04-22T13:58:00.883Z,4.4
2023-04-22T13:59:09.295Z,4.4
2023-04-22T14:00:17.894Z,5
2023-04-22T14:01:26.408Z,5
2023-04-22T14:02:34.731Z,5
2023-04-22T14:03:43.233Z,4.3
2023-04-22T14:04:51.557Z,4.3
2023-04-22T14:05:59.952Z,4.3
2023-04-22T14:07:08.558Z,4.7
2023-04-22T14:08:16.902Z,4.7
2023-04-22T14:09:25.331Z,4.7
2023-04-22T14:10:33.913Z,4.4
2023-04-22T14:11:42.285Z,4.4
2023-04-22T14:12:50.628Z,4.4
2023-04-22T14:13:59.231Z,4.4
2023-04-22T14:15:07.618Z,4.4
2023-04-22T14:16:16.026Z,4.4
2023-04-22T14:17:24.588Z,2.9
2023-04-22T14:18:32.931Z,2.9
2023-04-22T14:19:41.577Z,2.9
2023-04-22T14:20:49.927Z,3.3
2023-04-22T14:21:58.339Z,3.3
2023-04-22T14:23:06.685Z,3.3
2023-04-22T14:24:15.265Z,4.5
2023-04-22T14:25:23.671Z,4.5
2023-04-22T14:26:32.030Z,4.5
2023-04-22T14:27:40.642Z,2.3
2023-04-22T14:28:49.029Z,2.3
2023-04-22T14:29:57.381Z,2.3
2023-04-22T14:31:05.974Z,5.5
2023-04-22T14:32:14.832Z,5.5
2023-04-22T14:33:22.747Z,5.5
2023-04-22T14:34:31.344Z,3.3
2023-04-22T14:35:39.726Z,3.3
2023-04-22T14:36:48.167Z,3.3
2023-04-22T14:37:56.731Z,2.5
2023-04-22T14:39:05.125Z,2.5
2023-04-22T14:40:13.546Z,2.5
2023-04-22T14:41:22.168Z,3.7
2023-04-22T14:42:30.573Z,3.7
2023-04-22T14:43:38.926Z,3.7
2023-04-22T14:44:47.529Z,3
2023-04-22T14:45:55.934Z,3
2023-04-22T14:47:04.259Z,3
2023-04-22T14:48:12.854Z,6.1
2023-04-22T14:49:21.238Z,6.1
2023-04-22T14:50:29.677Z,6.1
2023-04-22T14:51:38.291Z,4.5
2023-04-22T14:52:46.720Z,4.5
2023-04-22T14:53:55.127Z,4.5
2023-04-22T14:55:09.060Z,3.9
2023-04-22T14:56:12.193Z,3.9
2023-04-22T14:57:20.564Z,3.9
2023-04-22T14:58:29.187Z,2.8
2023-04-22T14:59:37.796Z,2.8
2023-04-22T15:00:46.044Z,2.8
2023-04-22T15:01:54.670Z,3
2023-04-22T15:03:03.214Z,3
2023-04-22T15:04:11.582Z,3
2023-04-22T15:38:15.810Z,0
2023-04-22T15:39:24.145Z,0
2023-04-22T15:40:32.552Z,0
2023-04-22T15:41:41.141Z,2.3
2023-04-22T15:42:49.524Z,2.3
2023-04-22T15:43:57.895Z,2.3
2023-04-22T15:45:06.483Z,2.9
2023-04-22T15:46:14.912Z,2.9
2023-04-22T15:47:23.281Z,2.9
2023-04-22T15:48:31.828Z,3.7
2023-04-22T15:49:40.458Z,3.7
2023-04-22T15:50:48.591Z,3.7
2023-04-22T15:51:57.186Z,8
2023-04-22T15:54:57.523Z,8
2023-04-22T15:56:06.065Z,5.4
2023-04-22T15:57:14.449Z,5.4
2023-04-22T15:58:22.830Z,5.4
2023-04-22T15:59:31.403Z,3.3
2023-04-22T16:00:39.833Z,3.3
2023-04-22T16:01:49.156Z,3.3
2023-04-22T16:02:56.974Z,3.1
2023-04-22T16:04:05.387Z,3.1
2023-04-22T16:05:13.558Z,3.1
2023-04-22T16:06:22.206Z,2.7
2023-04-22T16:07:30.555Z,2.7
2023-04-22T16:08:38.933Z,2.7
2023-04-22T16:09:47.519Z,3.4
2023-04-22T16:10:55.915Z,3.4
2023-04-22T16:12:04.278Z,3.4
2023-04-22T16:13:12.833Z,3.2
2023-04-22T16:14:21.205Z,3.2
2023-04-22T16:15:29.577Z,3.2
2023-04-22T16:16:38.150Z,3.6
2023-04-22T16:17:46.545Z,3.6
2023-04-22T16:18:54.925Z,3.6
2023-04-22T16:20:03.495Z,3.3